sensor_id;sensor_type;location;lat;lon;timestamp;pressure;altitude;pressure_sealevel;temperature;humidity
56689;BME280;42565;53.342;-1.534;2023-05-09T00:01:26;98641.32;;;14.41;78.74
56689;BME280;42565;53.342;-1.534;2023-05-09T00:03:53;98639.13;;;14.50;79.57
56689;BME280;42565;53.342;-1.534;2023-05-09T00:06:21;98637.06;;;14.48;78.74
56689;BME280;42565;53.342;-1.534;2023-05-09T00:08:48;98637.28;;;14.07;80.62
56689;BME280;42565;53.342;-1.534;2023-05-09T00:11:16;98639.00;;;14.09;79.77
56689;BME280;42565;53.342;-1.534;2023-05-09T00:13:43;98637.85;;;14.29;78.38
56689;BME280;42565;53.342;-1.534;2023-05-09T00:16:10;98632.60;;;14.66;77.34
56689;BME280;42565;53.342;-1.534;2023-05-09T00:18:38;98633.58;;;15.05;75.55
56689;BME280;42565;53.342;-1.534;2023-05-09T00:21:05;98629.18;;;14.82;75.36
56689;BME280;42565;53.342;-1.534;2023-05-09T00:23:33;98619.02;;;14.42;76.17
56689;BME280;42565;53.342;-1.534;2023-05-09T00:26:00;98614.76;;;14.76;76.64
56689;BME280;42565;53.342;-1.534;2023-05-09T00:28:28;98612.54;;;14.83;75.35
56689;BME280;42565;53.342;-1.534;2023-05-09T00:30:56;98604.58;;;14.66;75.70
56689;BME280;42565;53.342;-1.534;2023-05-09T00:33:23;98599.40;;;14.63;75.30
56689;BME280;42565;53.342;-1.534;2023-05-09T00:35:50;98597.43;;;14.45;75.74
56689;BME280;42565;53.342;-1.534;2023-05-09T00:38:17;98596.08;;;14.13;75.98
56689;BME280;42565;53.342;-1.534;2023-05-09T00:40:45;98590.59;;;14.49;75.47
56689;BME280;42565;53.342;-1.534;2023-05-09T00:43:12;98581.28;;;14.26;76.10
56689;BME280;42565;53.342;-1.534;2023-05-09T00:45:40;98580.17;;;13.75;78.06
56689;BME280;42565;53.342;-1.534;2023-05-09T00:48:07;98580.85;;;13.76;78.46
56689;BME280;42565;53.342;-1.534;2023-05-09T00:50:35;98576.71;;;13.39;79.49
56689;BME280;42565;53.342;-1.534;2023-05-09T00:53:02;98571.15;;;13.69;78.11
56689;BME280;42565;53.342;-1.534;2023-05-09T00:55:30;98572.96;;;13.85;78.03
56689;BME280;42565;53.342;-1.534;2023-05-09T00:57:57;98573.01;;;13.94;77.69
56689;BME280;42565;53.342;-1.534;2023-05-09T01:00:24;98568.28;;;13.53;77.92
56689;BME280;42565;53.342;-1.534;2023-05-09T01:02:53;98564.63;;;13.36;79.54
56689;BME280;42565;53.342;-1.534;2023-05-09T01:05:22;98560.84;;;13.55;78.70
56689;BME280;42565;53.342;-1.534;2023-05-09T01:08:06;98554.22;;;13.62;78.16
56689;BME280;42565;53.342;-1.534;2023-05-09T01:10:40;98554.29;;;13.78;77.71
56689;BME280;42565;53.342;-1.534;2023-05-09T01:13:17;98552.95;;;13.79;77.84
56689;BME280;42565;53.342;-1.534;2023-05-09T01:15:53;98547.57;;;13.17;79.89
56689;BME280;42565;53.342;-1.534;2023-05-09T01:18:25;98547.07;;;12.77;79.54
56689;BME280;42565;53.342;-1.534;2023-05-09T01:21:00;98549.27;;;13.84;78.70
56689;BME280;42565;53.342;-1.534;2023-05-09T01:23:50;98544.56;;;13.47;78.37
56689;BME280;42565;53.342;-1.534;2023-05-09T01:26:26;98540.01;;;13.29;78.67
56689;BME280;42565;53.342;-1.534;2023-05-09T01:29:30;98536.02;;;13.28;80.08
56689;BME280;42565;53.342;-1.534;2023-05-09T01:32:08;98533.79;;;13.45;80.61
56689;BME280;42565;53.342;-1.534;2023-05-09T01:34:37;98531.68;;;12.89;81.62
56689;BME280;42565;53.342;-1.534;2023-05-09T01:37:06;98532.19;;;13.25;81.23
56689;BME280;42565;53.342;-1.534;2023-05-09T01:39:37;98530.84;;;13.31;80.88
56689;BME280;42565;53.342;-1.534;2023-05-09T01:42:08;98527.88;;;13.34;81.01
56689;BME280;42565;53.342;-1.534;2023-05-09T01:44:38;98525.96;;;13.56;80.34
56689;BME280;42565;53.342;-1.534;2023-05-09T01:47:07;98523.27;;;13.44;81.01
56689;BME280;42565;53.342;-1.534;2023-05-09T01:49:37;98521.65;;;13.07;81.54
56689;BME280;42565;53.342;-1.534;2023-05-09T01:52:10;98523.88;;;12.74;83.48
56689;BME280;42565;53.342;-1.534;2023-05-09T01:54:38;98526.33;;;12.66;84.34
56689;BME280;42565;53.342;-1.534;2023-05-09T01:57:07;98524.48;;;12.15;85.42
56689;BME280;42565;53.342;-1.534;2023-05-09T01:59:35;98531.14;;;12.04;86.31
56689;BME280;42565;53.342;-1.534;2023-05-09T02:02:05;98525.07;;;12.43;85.09
56689;BME280;42565;53.342;-1.534;2023-05-09T02:04:34;98529.32;;;12.50;84.78
56689;BME280;42565;53.342;-1.534;2023-05-09T02:07:03;98532.74;;;12.45;84.88
56689;BME280;42565;53.342;-1.534;2023-05-09T02:09:31;98532.43;;;12.35;84.60
56689;BME280;42565;53.342;-1.534;2023-05-09T02:11:58;98533.40;;;12.78;84.24
56689;BME280;42565;53.342;-1.534;2023-05-09T02:14:27;98532.37;;;12.89;83.49
56689;BME280;42565;53.342;-1.534;2023-05-09T02:16:53;98528.60;;;12.70;82.69
56689;BME280;42565;53.342;-1.534;2023-05-09T02:19:20;98533.86;;;12.61;82.60
56689;BME280;42565;53.342;-1.534;2023-05-09T02:21:48;98536.10;;;12.86;81.77
56689;BME280;42565;53.342;-1.534;2023-05-09T02:24:16;98531.85;;;13.10;81.52
56689;BME280;42565;53.342;-1.534;2023-05-09T02:26:43;98530.45;;;13.21;82.50
56689;BME280;42565;53.342;-1.534;2023-05-09T02:29:11;98528.75;;;13.09;82.27
56689;BME280;42565;53.342;-1.534;2023-05-09T02:31:39;98528.77;;;12.96;82.04
56689;BME280;42565;53.342;-1.534;2023-05-09T02:34:07;98533.28;;;12.81;82.60
56689;BME280;42565;53.342;-1.534;2023-05-09T02:36:36;98531.07;;;12.70;83.13
56689;BME280;42565;53.342;-1.534;2023-05-09T02:39:04;98528.54;;;13.20;81.43
56689;BME280;42565;53.342;-1.534;2023-05-09T02:41:30;98528.36;;;13.01;81.92
56689;BME280;42565;53.342;-1.534;2023-05-09T02:43:58;98525.89;;;13.00;82.25
56689;BME280;42565;53.342;-1.534;2023-05-09T02:46:26;98529.51;;;12.49;82.78
56689;BME280;42565;53.342;-1.534;2023-05-09T02:48:53;98525.01;;;12.91;82.75
56689;BME280;42565;53.342;-1.534;2023-05-09T02:51:21;98517.48;;;12.33;82.93
56689;BME280;42565;53.342;-1.534;2023-05-09T02:53:48;98516.94;;;12.52;83.06
56689;BME280;42565;53.342;-1.534;2023-05-09T02:56:15;98517.71;;;12.61;82.51
56689;BME280;42565;53.342;-1.534;2023-05-09T02:58:42;98510.45;;;12.34;84.14
56689;BME280;42565;53.342;-1.534;2023-05-09T03:01:10;98511.98;;;12.47;82.94
56689;BME280;42565;53.342;-1.534;2023-05-09T03:03:37;98509.43;;;12.67;82.41
56689;BME280;42565;53.342;-1.534;2023-05-09T03:06:05;98510.86;;;13.21;80.59
56689;BME280;42565;53.342;-1.534;2023-05-09T03:08:32;98510.56;;;13.50;78.75
56689;BME280;42565;53.342;-1.534;2023-05-09T03:10:59;98504.45;;;13.97;77.20
56689;BME280;42565;53.342;-1.534;2023-05-09T03:13:26;98510.43;;;13.44;78.45
56689;BME280;42565;53.342;-1.534;2023-05-09T03:15:54;98507.47;;;13.65;79.87
56689;BME280;42565;53.342;-1.534;2023-05-09T03:18:21;98500.93;;;13.05;80.05
56689;BME280;42565;53.342;-1.534;2023-05-09T03:20:49;98497.94;;;13.48;79.51
56689;BME280;42565;53.342;-1.534;2023-05-09T03:23:16;98504.16;;;13.46;78.49
56689;BME280;42565;53.342;-1.534;2023-05-09T03:25:43;98508.62;;;13.38;79.55
56689;BME280;42565;53.342;-1.534;2023-05-09T03:28:10;98506.54;;;12.61;82.66
56689;BME280;42565;53.342;-1.534;2023-05-09T03:30:36;98495.04;;;12.28;84.08
56689;BME280;42565;53.342;-1.534;2023-05-09T03:33:04;98491.87;;;12.10;84.87
56689;BME280;42565;53.342;-1.534;2023-05-09T03:35:30;98488.76;;;12.52;82.54
56689;BME280;42565;53.342;-1.534;2023-05-09T03:37:57;98483.38;;;13.03;81.53
56689;BME280;42565;53.342;-1.534;2023-05-09T03:40:24;98474.61;;;12.51;82.96
56689;BME280;42565;53.342;-1.534;2023-05-09T03:42:51;98483.58;;;12.55;84.44
56689;BME280;42565;53.342;-1.534;2023-05-09T03:45:18;98479.41;;;12.41;81.53
56689;BME280;42565;53.342;-1.534;2023-05-09T03:47:45;98477.40;;;12.61;83.91
56689;BME280;42565;53.342;-1.534;2023-05-09T03:50:12;98489.12;;;13.09;82.85
56689;BME280;42565;53.342;-1.534;2023-05-09T03:52:40;98492.45;;;13.18;80.79
56689;BME280;42565;53.342;-1.534;2023-05-09T03:55:07;98488.19;;;13.63;79.82
56689;BME280;42565;53.342;-1.534;2023-05-09T03:57:35;98486.40;;;12.66;81.45
56689;BME280;42565;53.342;-1.534;2023-05-09T04:00:03;98482.39;;;12.93;80.60
56689;BME280;42565;53.342;-1.534;2023-05-09T04:02:31;98480.54;;;12.95;81.10
56689;BME280;42565;53.342;-1.534;2023-05-09T04:04:59;98483.74;;;13.15;80.45
56689;BME280;42565;53.342;-1.534;2023-05-09T04:07:26;98480.84;;;12.83;79.62
56689;BME280;42565;53.342;-1.534;2023-05-09T04:09:53;98483.66;;;13.39;78.69
56689;BME280;42565;53.342;-1.534;2023-05-09T04:12:25;98482.62;;;12.83;78.35
56689;BME280;42565;53.342;-1.534;2023-05-09T04:14:52;98479.56;;;12.85;79.91
56689;BME280;42565;53.342;-1.534;2023-05-09T04:17:23;98485.56;;;12.57;78.52
56689;BME280;42565;53.342;-1.534;2023-05-09T04:19:50;98489.85;;;13.75;76.50
56689;BME280;42565;53.342;-1.534;2023-05-09T04:22:21;98494.10;;;13.34;77.35
56689;BME280;42565;53.342;-1.534;2023-05-09T04:24:48;98496.24;;;13.52;77.37
56689;BME280;42565;53.342;-1.534;2023-05-09T04:27:16;98498.54;;;13.64;75.53
56689;BME280;42565;53.342;-1.534;2023-05-09T04:29:43;98496.46;;;13.90;76.00
56689;BME280;42565;53.342;-1.534;2023-05-09T04:32:15;98495.37;;;13.46;76.83
56689;BME280;42565;53.342;-1.534;2023-05-09T04:34:42;98494.68;;;13.98;75.95
56689;BME280;42565;53.342;-1.534;2023-05-09T04:37:09;98487.12;;;14.31;74.34
56689;BME280;42565;53.342;-1.534;2023-05-09T04:39:36;98489.70;;;14.39;73.81
56689;BME280;42565;53.342;-1.534;2023-05-09T04:42:03;98486.62;;;14.92;72.03
56689;BME280;42565;53.342;-1.534;2023-05-09T04:44:30;98488.28;;;15.03;72.03
56689;BME280;42565;53.342;-1.534;2023-05-09T04:46:57;98488.32;;;14.77;71.55
56689;BME280;42565;53.342;-1.534;2023-05-09T04:49:29;98484.69;;;14.08;74.05
56689;BME280;42565;53.342;-1.534;2023-05-09T04:51:56;98483.84;;;14.61;72.77
56689;BME280;42565;53.342;-1.534;2023-05-09T04:54:33;98484.37;;;14.28;73.10
56689;BME280;42565;53.342;-1.534;2023-05-09T04:57:00;98475.24;;;14.72;73.71
56689;BME280;42565;53.342;-1.534;2023-05-09T04:59:32;98478.17;;;14.29;73.41
56689;BME280;42565;53.342;-1.534;2023-05-09T05:01:59;98473.48;;;14.17;73.74
56689;BME280;42565;53.342;-1.534;2023-05-09T05:04:27;98471.39;;;14.26;74.19
56689;BME280;42565;53.342;-1.534;2023-05-09T05:07:10;98467.35;;;14.76;73.12
56689;BME280;42565;53.342;-1.534;2023-05-09T05:09:37;98466.68;;;14.44;73.36
56689;BME280;42565;53.342;-1.534;2023-05-09T05:12:09;98467.47;;;14.42;73.83
56689;BME280;42565;53.342;-1.534;2023-05-09T05:14:36;98461.93;;;14.34;74.28
56689;BME280;42565;53.342;-1.534;2023-05-09T05:17:07;98457.58;;;14.30;74.67
56689;BME280;42565;53.342;-1.534;2023-05-09T05:19:34;98458.76;;;14.13;75.58
56689;BME280;42565;53.342;-1.534;2023-05-09T05:22:01;98463.00;;;14.42;74.85
56689;BME280;42565;53.342;-1.534;2023-05-09T05:24:28;98465.09;;;14.55;74.25
56689;BME280;42565;53.342;-1.534;2023-05-09T05:26:54;98462.35;;;14.59;73.09
56689;BME280;42565;53.342;-1.534;2023-05-09T05:29:22;98459.73;;;14.10;74.54
56689;BME280;42565;53.342;-1.534;2023-05-09T05:31:48;98455.80;;;13.97;74.26
56689;BME280;42565;53.342;-1.534;2023-05-09T05:34:16;98456.12;;;14.10;74.09
56689;BME280;42565;53.342;-1.534;2023-05-09T05:36:43;98454.30;;;14.43;73.50
56689;BME280;42565;53.342;-1.534;2023-05-09T05:39:10;98456.31;;;14.71;72.72
56689;BME280;42565;53.342;-1.534;2023-05-09T05:41:37;98459.36;;;14.12;73.40
56689;BME280;42565;53.342;-1.534;2023-05-09T05:44:04;98460.05;;;14.13;73.80
56689;BME280;42565;53.342;-1.534;2023-05-09T05:46:32;98460.92;;;14.42;73.63
56689;BME280;42565;53.342;-1.534;2023-05-09T05:48:58;98457.80;;;14.84;72.10
56689;BME280;42565;53.342;-1.534;2023-05-09T05:51:25;98455.00;;;14.44;71.56
56689;BME280;42565;53.342;-1.534;2023-05-09T05:53:52;98449.38;;;14.72;71.06
56689;BME280;42565;53.342;-1.534;2023-05-09T05:56:18;98442.42;;;14.41;70.95
56689;BME280;42565;53.342;-1.534;2023-05-09T05:58:46;98439.33;;;14.99;70.38
56689;BME280;42565;53.342;-1.534;2023-05-09T06:01:13;98434.82;;;15.05;70.78
56689;BME280;42565;53.342;-1.534;2023-05-09T06:03:40;98432.98;;;14.75;71.18
56689;BME280;42565;53.342;-1.534;2023-05-09T06:06:07;98429.43;;;15.04;70.08
56689;BME280;42565;53.342;-1.534;2023-05-09T06:08:34;98421.74;;;15.01;70.01
56689;BME280;42565;53.342;-1.534;2023-05-09T06:11:01;98414.24;;;15.51;69.88
56689;BME280;42565;53.342;-1.534;2023-05-09T06:13:28;98415.86;;;14.89;71.19
56689;BME280;42565;53.342;-1.534;2023-05-09T06:15:55;98408.85;;;15.13;71.31
56689;BME280;42565;53.342;-1.534;2023-05-09T06:18:23;98409.97;;;14.70;71.31
56689;BME280;42565;53.342;-1.534;2023-05-09T06:20:50;98412.83;;;14.62;73.22
56689;BME280;42565;53.342;-1.534;2023-05-09T06:23:17;98413.61;;;14.35;72.83
56689;BME280;42565;53.342;-1.534;2023-05-09T06:25:44;98412.78;;;14.54;73.09
56689;BME280;42565;53.342;-1.534;2023-05-09T06:28:11;98419.47;;;14.36;73.31
56689;BME280;42565;53.342;-1.534;2023-05-09T06:30:38;98421.18;;;14.19;73.63
56689;BME280;42565;53.342;-1.534;2023-05-09T06:33:04;98421.61;;;14.32;73.66
56689;BME280;42565;53.342;-1.534;2023-05-09T06:35:31;98423.39;;;14.30;72.05
56689;BME280;42565;53.342;-1.534;2023-05-09T06:37:58;98432.45;;;14.97;71.67
56689;BME280;42565;53.342;-1.534;2023-05-09T06:40:24;98435.20;;;14.58;71.46
56689;BME280;42565;53.342;-1.534;2023-05-09T06:42:51;98438.54;;;14.80;73.17
56689;BME280;42565;53.342;-1.534;2023-05-09T06:45:18;98446.47;;;14.31;72.57
56689;BME280;42565;53.342;-1.534;2023-05-09T06:47:50;98447.25;;;15.07;70.48
56689;BME280;42565;53.342;-1.534;2023-05-09T06:50:17;98450.56;;;14.64;70.39
56689;BME280;42565;53.342;-1.534;2023-05-09T06:52:44;98450.45;;;15.24;68.55
56689;BME280;42565;53.342;-1.534;2023-05-09T06:55:10;98449.11;;;15.03;69.58
56689;BME280;42565;53.342;-1.534;2023-05-09T06:57:38;98448.08;;;15.01;69.48
56689;BME280;42565;53.342;-1.534;2023-05-09T07:00:07;98447.73;;;15.95;68.35
56689;BME280;42565;53.342;-1.534;2023-05-09T07:02:35;98448.77;;;15.74;67.44
56689;BME280;42565;53.342;-1.534;2023-05-09T07:05:01;98451.25;;;15.86;67.06
56689;BME280;42565;53.342;-1.534;2023-05-09T07:07:29;98447.95;;;16.41;66.86
56689;BME280;42565;53.342;-1.534;2023-05-09T07:09:56;98449.60;;;16.67;66.06
56689;BME280;42565;53.342;-1.534;2023-05-09T07:12:23;98452.10;;;15.18;67.60
56689;BME280;42565;53.342;-1.534;2023-05-09T07:14:50;98449.05;;;15.92;67.24
56689;BME280;42565;53.342;-1.534;2023-05-09T07:17:17;98455.51;;;14.96;69.52
56689;BME280;42565;53.342;-1.534;2023-05-09T07:19:44;98453.13;;;15.68;70.14
56689;BME280;42565;53.342;-1.534;2023-05-09T07:22:11;98458.39;;;15.88;69.27
56689;BME280;42565;53.342;-1.534;2023-05-09T07:24:38;98460.40;;;15.62;68.01
56689;BME280;42565;53.342;-1.534;2023-05-09T07:27:10;98456.31;;;15.40;67.40
56689;BME280;42565;53.342;-1.534;2023-05-09T07:29:37;98455.21;;;14.99;66.60
56689;BME280;42565;53.342;-1.534;2023-05-09T07:32:04;98450.05;;;15.89;65.89
56689;BME280;42565;53.342;-1.534;2023-05-09T07:34:32;98450.82;;;16.03;64.95
56689;BME280;42565;53.342;-1.534;2023-05-09T07:37:09;98448.60;;;16.39;65.62
56689;BME280;42565;53.342;-1.534;2023-05-09T07:39:36;98455.17;;;15.76;65.22
56689;BME280;42565;53.342;-1.534;2023-05-09T07:42:04;98455.32;;;15.82;64.45
56689;BME280;42565;53.342;-1.534;2023-05-09T07:44:31;98453.88;;;15.60;62.94
56689;BME280;42565;53.342;-1.534;2023-05-09T07:46:59;98455.77;;;15.72;64.61
56689;BME280;42565;53.342;-1.534;2023-05-09T07:49:26;98459.58;;;15.15;64.89
56689;BME280;42565;53.342;-1.534;2023-05-09T07:51:54;98455.49;;;15.76;63.84
56689;BME280;42565;53.342;-1.534;2023-05-09T07:54:20;98457.93;;;15.59;64.56
56689;BME280;42565;53.342;-1.534;2023-05-09T07:56:47;98462.31;;;15.02;65.88
56689;BME280;42565;53.342;-1.534;2023-05-09T07:59:15;98458.92;;;15.02;65.33
56689;BME280;42565;53.342;-1.534;2023-05-09T08:01:42;98457.39;;;16.12;65.46
56689;BME280;42565;53.342;-1.534;2023-05-09T08:04:10;98453.26;;;16.58;62.84
56689;BME280;42565;53.342;-1.534;2023-05-09T08:06:37;98452.62;;;16.89;59.90
56689;BME280;42565;53.342;-1.534;2023-05-09T08:09:05;98451.79;;;16.55;60.76
56689;BME280;42565;53.342;-1.534;2023-05-09T08:11:32;98448.73;;;16.40;59.51
56689;BME280;42565;53.342;-1.534;2023-05-09T08:14:00;98448.74;;;15.90;62.68
56689;BME280;42565;53.342;-1.534;2023-05-09T08:16:27;98446.36;;;15.49;60.30
56689;BME280;42565;53.342;-1.534;2023-05-09T08:18:55;98443.66;;;16.40;59.72
56689;BME280;42565;53.342;-1.534;2023-05-09T08:21:22;98442.60;;;16.59;59.03
56689;BME280;42565;53.342;-1.534;2023-05-09T08:23:50;98439.23;;;17.05;57.35
56689;BME280;42565;53.342;-1.534;2023-05-09T08:26:17;98439.25;;;17.16;57.69
56689;BME280;42565;53.342;-1.534;2023-05-09T08:28:44;98440.86;;;17.48;56.97
56689;BME280;42565;53.342;-1.534;2023-05-09T08:31:11;98439.29;;;18.06;55.07
56689;BME280;42565;53.342;-1.534;2023-05-09T08:33:39;98439.86;;;17.88;54.85
56689;BME280;42565;53.342;-1.534;2023-05-09T08:36:07;98441.45;;;18.02;53.14
56689;BME280;42565;53.342;-1.534;2023-05-09T08:38:34;98434.74;;;17.97;53.93
56689;BME280;42565;53.342;-1.534;2023-05-09T08:41:01;98435.20;;;18.19;53.85
56689;BME280;42565;53.342;-1.534;2023-05-09T08:43:29;98430.76;;;17.77;52.97
56689;BME280;42565;53.342;-1.534;2023-05-09T08:46:02;98432.20;;;18.63;54.89
56689;BME280;42565;53.342;-1.534;2023-05-09T08:48:34;98432.23;;;17.95;54.72
56689;BME280;42565;53.342;-1.534;2023-05-09T08:51:01;98437.81;;;18.25;55.12
56689;BME280;42565;53.342;-1.534;2023-05-09T08:53:28;98430.52;;;18.25;53.23
56689;BME280;42565;53.342;-1.534;2023-05-09T08:55:57;98431.99;;;18.19;54.93
56689;BME280;42565;53.342;-1.534;2023-05-09T08:58:25;98433.35;;;17.70;54.48
56689;BME280;42565;53.342;-1.534;2023-05-09T09:00:55;98436.03;;;18.17;55.34
56689;BME280;42565;53.342;-1.534;2023-05-09T09:03:23;98440.61;;;18.16;55.15
56689;BME280;42565;53.342;-1.534;2023-05-09T09:05:52;98436.88;;;18.14;55.16
56689;BME280;42565;53.342;-1.534;2023-05-09T09:08:21;98435.43;;;17.81;54.30
56689;BME280;42565;53.342;-1.534;2023-05-09T09:10:49;98434.93;;;18.21;54.87
56689;BME280;42565;53.342;-1.534;2023-05-09T09:13:16;98430.94;;;18.32;54.22
56689;BME280;42565;53.342;-1.534;2023-05-09T09:15:45;98427.61;;;18.90;53.00
56689;BME280;42565;53.342;-1.534;2023-05-09T09:18:19;98424.91;;;18.95;51.86
56689;BME280;42565;53.342;-1.534;2023-05-09T09:20:52;98420.90;;;19.05;52.21
56689;BME280;42565;53.342;-1.534;2023-05-09T09:23:24;98411.93;;;18.13;53.23
56689;BME280;42565;53.342;-1.534;2023-05-09T09:25:57;98415.48;;;18.83;53.09
56689;BME280;42565;53.342;-1.534;2023-05-09T09:28:24;98415.69;;;18.75;50.90
56689;BME280;42565;53.342;-1.534;2023-05-09T09:30:51;98415.58;;;18.66;51.36
56689;BME280;42565;53.342;-1.534;2023-05-09T09:33:19;98411.38;;;19.09;51.18
56689;BME280;42565;53.342;-1.534;2023-05-09T09:35:53;98407.09;;;19.40;49.21
56689;BME280;42565;53.342;-1.534;2023-05-09T09:38:22;98407.34;;;19.44;48.26
56689;BME280;42565;53.342;-1.534;2023-05-09T09:40:52;98407.56;;;19.59;46.77
56689;BME280;42565;53.342;-1.534;2023-05-09T09:43:25;98397.90;;;19.07;46.71
56689;BME280;42565;53.342;-1.534;2023-05-09T09:45:53;98396.72;;;19.90;47.18
56689;BME280;42565;53.342;-1.534;2023-05-09T09:48:23;98394.29;;;20.00;47.37
56689;BME280;42565;53.342;-1.534;2023-05-09T09:50:50;98400.10;;;20.24;46.24
56689;BME280;42565;53.342;-1.534;2023-05-09T09:53:19;98392.26;;;19.41;46.05
56689;BME280;42565;53.342;-1.534;2023-05-09T09:55:49;98393.15;;;20.41;46.47
56689;BME280;42565;53.342;-1.534;2023-05-09T09:58:17;98395.52;;;20.29;46.10
56689;BME280;42565;53.342;-1.534;2023-05-09T10:00:45;98395.11;;;20.90;46.73
56689;BME280;42565;53.342;-1.534;2023-05-09T10:03:17;98395.82;;;20.55;45.29
56689;BME280;42565;53.342;-1.534;2023-05-09T10:05:44;98396.64;;;20.19;45.53
56689;BME280;42565;53.342;-1.534;2023-05-09T10:08:11;98396.18;;;20.05;46.31
56689;BME280;42565;53.342;-1.534;2023-05-09T10:10:38;98393.67;;;19.80;47.90
56689;BME280;42565;53.342;-1.534;2023-05-09T10:13:08;98396.38;;;20.02;46.81
56689;BME280;42565;53.342;-1.534;2023-05-09T10:15:35;98395.05;;;19.86;46.22
56689;BME280;42565;53.342;-1.534;2023-05-09T10:18:03;98390.19;;;20.17;46.53
56689;BME280;42565;53.342;-1.534;2023-05-09T10:20:30;98387.27;;;19.73;45.73
56689;BME280;42565;53.342;-1.534;2023-05-09T10:23:01;98385.81;;;20.21;46.35
56689;BME280;42565;53.342;-1.534;2023-05-09T10:25:36;98385.36;;;19.70;47.33
56689;BME280;42565;53.342;-1.534;2023-05-09T10:28:10;98380.03;;;19.93;47.11
56689;BME280;42565;53.342;-1.534;2023-05-09T10:30:45;98385.30;;;19.21;47.03
56689;BME280;42565;53.342;-1.534;2023-05-09T10:33:19;98381.34;;;20.10;46.78
56689;BME280;42565;53.342;-1.534;2023-05-09T10:35:49;98379.52;;;20.13;47.83
56689;BME280;42565;53.342;-1.534;2023-05-09T10:38:17;98375.74;;;20.65;46.65
56689;BME280;42565;53.342;-1.534;2023-05-09T10:40:46;98373.68;;;20.77;46.09
56689;BME280;42565;53.342;-1.534;2023-05-09T10:43:13;98375.72;;;20.28;46.95
56689;BME280;42565;53.342;-1.534;2023-05-09T10:45:42;98371.92;;;20.04;47.00
56689;BME280;42565;53.342;-1.534;2023-05-09T10:48:10;98367.81;;;20.31;46.09
56689;BME280;42565;53.342;-1.534;2023-05-09T10:50:47;98366.54;;;20.30;46.39
56689;BME280;42565;53.342;-1.534;2023-05-09T10:53:15;98362.25;;;20.08;46.72
56689;BME280;42565;53.342;-1.534;2023-05-09T10:55:51;98364.83;;;18.99;47.16
56689;BME280;42565;53.342;-1.534;2023-05-09T10:58:21;98361.98;;;18.74;47.89
56689;BME280;42565;53.342;-1.534;2023-05-09T11:00:51;98364.19;;;18.70;47.65
56689;BME280;42565;53.342;-1.534;2023-05-09T11:03:19;98361.08;;;18.31;49.27
56689;BME280;42565;53.342;-1.534;2023-05-09T11:05:53;98356.67;;;18.00;49.49
56689;BME280;42565;53.342;-1.534;2023-05-09T11:08:23;98353.48;;;17.81;50.19
56689;BME280;42565;53.342;-1.534;2023-05-09T11:10:50;98351.78;;;18.65;49.69
56689;BME280;42565;53.342;-1.534;2023-05-09T11:13:19;98343.80;;;18.61;48.58
56689;BME280;42565;53.342;-1.534;2023-05-09T11:16:03;98342.36;;;18.79;48.44
56689;BME280;42565;53.342;-1.534;2023-05-09T11:18:31;98336.87;;;19.14;49.44
56689;BME280;42565;53.342;-1.534;2023-05-09T11:21:06;98328.06;;;19.43;47.50
56689;BME280;42565;53.342;-1.534;2023-05-09T11:23:33;98329.86;;;19.14;47.26
56689;BME280;42565;53.342;-1.534;2023-05-09T11:26:07;98332.21;;;19.62;46.56
56689;BME280;42565;53.342;-1.534;2023-05-09T11:28:36;98332.45;;;19.59;47.34
56689;BME280;42565;53.342;-1.534;2023-05-09T11:31:12;98332.14;;;19.73;47.36
56689;BME280;42565;53.342;-1.534;2023-05-09T11:33:41;98331.41;;;19.22;47.35
56689;BME280;42565;53.342;-1.534;2023-05-09T11:36:18;98337.84;;;18.67;47.88
56689;BME280;42565;53.342;-1.534;2023-05-09T11:38:45;98335.43;;;17.53;48.73
56689;BME280;42565;53.342;-1.534;2023-05-09T11:41:20;98333.06;;;18.20;49.30
56689;BME280;42565;53.342;-1.534;2023-05-09T11:43:48;98328.37;;;18.32;49.17
56689;BME280;42565;53.342;-1.534;2023-05-09T11:46:16;98327.72;;;18.99;48.05
56689;BME280;42565;53.342;-1.534;2023-05-09T11:48:43;98324.54;;;18.92;47.85
56689;BME280;42565;53.342;-1.534;2023-05-09T11:51:16;98323.98;;;18.97;48.85
56689;BME280;42565;53.342;-1.534;2023-05-09T11:53:49;98324.68;;;19.08;46.59
56689;BME280;42565;53.342;-1.534;2023-05-09T11:56:17;98318.07;;;18.83;48.05
56689;BME280;42565;53.342;-1.534;2023-05-09T11:58:44;98309.74;;;19.47;47.75
56689;BME280;42565;53.342;-1.534;2023-05-09T12:01:11;98310.66;;;19.75;48.27
56689;BME280;42565;53.342;-1.534;2023-05-09T12:03:42;98311.77;;;20.40;47.37
56689;BME280;42565;53.342;-1.534;2023-05-09T12:06:22;98312.74;;;19.35;47.45
56689;BME280;42565;53.342;-1.534;2023-05-09T12:08:55;98318.21;;;18.72;49.29
56689;BME280;42565;53.342;-1.534;2023-05-09T12:11:32;98315.67;;;18.63;50.12
56689;BME280;42565;53.342;-1.534;2023-05-09T12:13:59;98312.44;;;19.43;49.08
56689;BME280;42565;53.342;-1.534;2023-05-09T12:16:32;98309.87;;;19.21;48.56
56689;BME280;42565;53.342;-1.534;2023-05-09T12:18:58;98307.79;;;19.42;47.34
56689;BME280;42565;53.342;-1.534;2023-05-09T12:21:26;98305.20;;;19.88;46.17
56689;BME280;42565;53.342;-1.534;2023-05-09T12:23:55;98304.56;;;20.29;43.93
56689;BME280;42565;53.342;-1.534;2023-05-09T12:26:22;98299.23;;;19.41;42.66
56689;BME280;42565;53.342;-1.534;2023-05-09T12:28:50;98300.95;;;20.05;42.47
56689;BME280;42565;53.342;-1.534;2023-05-09T12:31:18;98294.60;;;19.91;41.25
56689;BME280;42565;53.342;-1.534;2023-05-09T12:33:46;98294.68;;;20.84;41.03
56689;BME280;42565;53.342;-1.534;2023-05-09T12:36:14;98292.66;;;20.77;40.24
56689;BME280;42565;53.342;-1.534;2023-05-09T12:38:51;98292.11;;;20.97;39.59
56689;BME280;42565;53.342;-1.534;2023-05-09T12:41:19;98286.66;;;21.19;39.86
56689;BME280;42565;53.342;-1.534;2023-05-09T12:43:48;98285.22;;;22.11;39.63
56689;BME280;42565;53.342;-1.534;2023-05-09T12:46:17;98280.52;;;21.52;38.23
56689;BME280;42565;53.342;-1.534;2023-05-09T12:48:45;98277.55;;;21.54;38.84
56689;BME280;42565;53.342;-1.534;2023-05-09T12:51:17;98278.90;;;21.98;38.87
56689;BME280;42565;53.342;-1.534;2023-05-09T12:53:50;98278.93;;;22.25;37.41
56689;BME280;42565;53.342;-1.534;2023-05-09T12:56:18;98281.61;;;22.11;36.20
56689;BME280;42565;53.342;-1.534;2023-05-09T12:58:48;98280.19;;;21.90;36.73